createdAt,value
2024-02-03T00:00:42.649Z,6.35
2024-02-03T00:03:10.151Z,8.10
2024-02-03T00:05:37.482Z,6.38
2024-02-03T00:08:05.456Z,5.63
2024-02-03T00:10:32.876Z,6.25
2024-02-03T00:13:00.398Z,4.88
2024-02-03T00:15:29.445Z,5.68
2024-02-03T00:17:56.897Z,4.97
2024-02-03T00:20:24.277Z,5.30
2024-02-03T00:22:51.746Z,4.88
2024-02-03T00:25:19.197Z,4.53
2024-02-03T00:27:46.645Z,5.97
2024-02-03T00:30:14.372Z,5.82
2024-02-03T00:32:43.279Z,4.50
2024-02-03T00:35:10.714Z,5.93
2024-02-03T00:37:38.011Z,4.18
2024-02-03T00:40:06.396Z,4.65
2024-02-03T00:42:33.936Z,4.57
2024-02-03T00:45:01.337Z,4.68
2024-02-03T00:47:28.773Z,6.20
2024-02-03T00:49:57.571Z,5.70
2024-02-03T00:52:24.945Z,4.07
2024-02-03T00:54:52.312Z,5.13
2024-02-03T00:57:19.770Z,3.95
2024-02-03T00:59:47.135Z,4.32
2024-02-03T01:02:14.610Z,5.10
2024-02-03T01:04:42.146Z,4.35
2024-02-03T01:07:10.941Z,5.55
2024-02-03T01:09:38.334Z,4.93
2024-02-03T01:12:06.394Z,4.25
2024-02-03T01:14:34.118Z,4.43
2024-02-03T01:17:01.590Z,7.80
2024-02-03T01:19:29.103Z,5.53
2024-02-03T01:21:56.605Z,4.63
2024-02-03T01:24:27.898Z,4.90
2024-02-03T01:26:55.336Z,4.45
2024-02-03T01:29:22.719Z,4.63
2024-02-03T01:31:50.083Z,4.30
2024-02-03T01:34:17.472Z,5.28
2024-02-03T01:36:45.987Z,3.72
2024-02-03T01:39:13.688Z,4.70
2024-02-03T01:41:42.477Z,5.70
2024-02-03T01:44:11.768Z,5.00
2024-02-03T01:46:40.158Z,5.20
2024-02-03T01:49:08.978Z,4.57
2024-02-03T01:51:36.750Z,4.97
2024-02-03T01:54:04.349Z,5.15
2024-02-03T01:56:34.855Z,3.60
2024-02-03T01:59:07.295Z,4.38
2024-02-03T02:01:34.974Z,6.95
2024-02-03T02:04:02.730Z,7.55
2024-02-03T02:06:31.344Z,4.93
2024-02-03T02:08:58.941Z,6.75
2024-02-03T02:11:29.262Z,5.43
2024-02-03T02:13:56.794Z,5.55
2024-02-03T02:16:25.622Z,4.32
2024-02-03T02:18:53.144Z,5.50
2024-02-03T02:21:21.966Z,5.32
2024-02-03T02:23:50.002Z,4.60
2024-02-03T02:26:17.378Z,5.00
2024-02-03T02:28:45.014Z,4.65
2024-02-03T02:31:12.370Z,4.80
2024-02-03T02:33:39.867Z,5.43
2024-02-03T02:36:08.755Z,4.75
2024-02-03T02:38:37.755Z,7.03
2024-02-03T02:41:05.151Z,3.95
2024-02-03T02:43:32.770Z,4.50
2024-02-03T02:46:00.066Z,8.27
2024-02-03T02:48:27.506Z,5.00
2024-02-03T02:50:55.209Z,5.50
2024-02-03T02:53:22.660Z,5.38
2024-02-03T02:55:51.350Z,4.68
2024-02-03T02:58:18.705Z,5.50
2024-02-03T03:00:46.178Z,6.72
2024-02-03T03:03:13.603Z,5.82
2024-02-03T03:05:41.001Z,6.10
2024-02-03T03:08:08.445Z,5.72
2024-02-03T03:10:35.905Z,4.93
2024-02-03T03:13:05.625Z,7.40
2024-02-03T03:15:34.509Z,9.05
2024-02-03T03:18:02.042Z,6.93
2024-02-03T03:20:31.869Z,6.13
2024-02-03T03:22:59.187Z,5.80
2024-02-03T03:25:26.496Z,7.25
2024-02-03T03:27:53.864Z,6.43
2024-02-03T03:30:22.600Z,6.05
2024-02-03T03:32:50.026Z,6.35
2024-02-03T03:35:17.412Z,7.63
2024-02-03T03:37:44.680Z,5.60
2024-02-03T03:40:12.346Z,6.40
2024-02-03T03:42:39.967Z,5.82
2024-02-03T03:45:08.122Z,6.05
2024-02-03T03:50:04.557Z,6.60
2024-02-03T03:52:31.878Z,6.45
2024-02-03T03:54:59.227Z,7.25
2024-02-03T03:57:26.526Z,6.32
2024-02-03T03:59:53.890Z,7.07
2024-02-03T04:02:21.200Z,7.47
2024-02-03T04:04:50.458Z,7.78
2024-02-03T04:07:20.419Z,6.78
2024-02-03T04:09:47.807Z,9.05
2024-02-03T04:12:15.311Z,7.35
2024-02-03T04:14:42.676Z,6.90
2024-02-03T04:17:10.158Z,6.93
2024-02-03T04:19:37.766Z,9.98
2024-02-03T04:22:07.066Z,7.65
2024-02-03T04:24:34.490Z,7.82
2024-02-03T04:27:01.896Z,7.53
2024-02-03T04:29:29.180Z,7.60
2024-02-03T04:31:56.520Z,7.93
2024-02-03T04:34:24.084Z,7.20
2024-02-03T04:36:51.600Z,7.35
2024-02-03T04:39:20.284Z,7.60
2024-02-03T04:41:47.639Z,8.32
2024-02-03T04:44:14.921Z,7.97
2024-02-03T04:46:42.221Z,8.93
2024-02-03T04:49:09.707Z,7.45
2024-02-03T04:51:37.159Z,8.10
2024-02-03T04:54:05.053Z,6.93
2024-02-03T04:56:33.814Z,8.23
2024-02-03T04:59:01.110Z,6.40
2024-02-03T05:01:28.487Z,7.35
2024-02-03T05:03:55.889Z,7.43
2024-02-03T05:06:23.366Z,7.00
2024-02-03T05:08:50.749Z,8.23
2024-02-03T05:11:18.076Z,8.27
2024-02-03T05:13:47.070Z,8.32
2024-02-03T05:16:14.388Z,7.57
2024-02-03T05:18:41.849Z,9.43
2024-02-03T05:21:09.223Z,7.43
2024-02-03T05:23:36.551Z,7.25
2024-02-03T05:26:04.033Z,8.02
2024-02-03T05:28:31.354Z,7.63
2024-02-03T05:31:00.057Z,8.00
2024-02-03T05:33:27.554Z,9.27
2024-02-03T05:35:55.504Z,7.55
2024-02-03T05:38:22.963Z,9.80
2024-02-03T05:40:50.725Z,8.75
2024-02-03T05:43:17.989Z,10.07
2024-02-03T05:45:45.429Z,6.97
2024-02-03T05:48:14.184Z,7.10
2024-02-03T05:50:41.467Z,7.13
2024-02-03T05:53:09.054Z,7.03
2024-02-03T05:55:36.471Z,8.25
2024-02-03T05:58:03.859Z,9.18
2024-02-03T06:00:31.199Z,7.28
2024-02-03T06:02:58.609Z,9.20
2024-02-03T06:05:27.357Z,8.15
2024-02-03T06:07:54.827Z,6.75
2024-02-03T06:10:22.289Z,7.25
2024-02-03T06:12:49.687Z,6.90
2024-02-03T06:15:17.270Z,7.38
2024-02-03T06:17:44.613Z,9.35
2024-02-03T06:20:12.667Z,8.25
2024-02-03T06:22:41.333Z,7.55
2024-02-03T06:25:08.940Z,7.10
2024-02-03T06:27:36.234Z,6.10
2024-02-03T06:30:03.800Z,5.95
2024-02-03T06:32:31.205Z,5.70
2024-02-03T06:34:58.701Z,5.15
2024-02-03T06:37:26.128Z,5.50
2024-02-03T06:39:54.826Z,5.63
2024-02-03T06:42:22.159Z,5.75
2024-02-03T06:44:51.812Z,4.50
2024-02-03T06:47:20.485Z,8.70
2024-02-03T06:49:48.054Z,5.72
2024-02-03T06:52:15.427Z,5.57
2024-02-03T06:54:42.888Z,5.05
2024-02-03T06:57:11.685Z,4.57
2024-02-03T06:59:39.026Z,5.97
2024-02-03T07:02:06.724Z,8.30
2024-02-03T07:04:34.062Z,6.80
2024-02-03T07:07:01.385Z,6.05
2024-02-03T07:09:28.788Z,5.25
2024-02-03T07:12:01.388Z,5.50
2024-02-03T07:14:35.941Z,5.05
2024-02-03T07:17:03.414Z,5.75
2024-02-03T07:19:30.946Z,6.13
2024-02-03T07:21:58.510Z,5.40
2024-02-03T07:24:25.837Z,7.72
2024-02-03T07:26:53.219Z,4.88
2024-02-03T07:29:20.517Z,5.78
2024-02-03T07:31:49.134Z,5.07
2024-02-03T07:34:16.681Z,4.82
2024-02-03T07:36:44.154Z,5.53
2024-02-03T07:39:11.476Z,4.50
2024-02-03T07:41:38.757Z,5.47
2024-02-03T07:44:06.090Z,5.25
2024-02-03T07:46:34.088Z,5.65
2024-02-03T07:49:02.992Z,5.07
2024-02-03T07:51:30.450Z,4.53
2024-02-03T07:53:57.863Z,8.68
2024-02-03T07:56:25.224Z,4.43
2024-02-03T07:58:52.874Z,5.65
2024-02-03T08:01:20.470Z,3.92
2024-02-03T08:03:48.225Z,3.72
2024-02-03T08:06:16.992Z,4.10
2024-02-03T08:08:44.366Z,4.43
2024-02-03T08:11:11.668Z,4.60
2024-02-03T08:13:39.028Z,4.47
2024-02-03T08:16:07.959Z,4.40
2024-02-03T08:18:35.353Z,4.22
2024-02-03T08:21:03.489Z,3.50
2024-02-03T08:23:32.113Z,4.38
2024-02-03T08:25:59.500Z,4.85
2024-02-03T08:28:26.889Z,3.90
2024-02-03T08:30:54.289Z,3.72
2024-02-03T08:33:21.815Z,4.60
2024-02-03T08:35:49.298Z,4.68
2024-02-03T08:38:16.604Z,3.53
2024-02-03T08:40:45.451Z,3.80
2024-02-03T08:43:12.757Z,4.05
2024-02-03T08:45:40.101Z,3.25
2024-02-03T08:48:07.884Z,3.95
2024-02-03T08:50:35.283Z,3.85
2024-02-03T08:53:02.639Z,4.75
2024-02-03T08:55:30.041Z,4.68
2024-02-03T08:57:58.815Z,4.07
2024-02-03T09:00:26.333Z,6.57
2024-02-03T09:02:53.734Z,4.50
2024-02-03T09:05:21.086Z,3.63
2024-02-03T09:07:48.405Z,4.25
2024-02-03T09:10:15.721Z,3.80
2024-02-03T09:12:43.065Z,4.30
2024-02-03T09:15:11.862Z,3.50
2024-02-03T09:17:39.156Z,5.00
2024-02-03T09:20:07.635Z,3.95
2024-02-03T09:22:35.046Z,3.72
2024-02-03T09:25:02.387Z,3.42
2024-02-03T09:27:29.805Z,3.60
2024-02-03T09:29:57.273Z,3.45
2024-02-03T09:32:25.972Z,3.25
2024-02-03T09:34:53.345Z,5.15
2024-02-03T09:39:50.880Z,3.00
2024-02-03T09:42:18.558Z,2.47
2024-02-03T09:44:46.720Z,4.28
2024-02-03T09:49:43.830Z,2.58
2024-02-03T09:52:11.661Z,5.00
2024-02-03T09:54:39.075Z,3.83
2024-02-03T09:57:06.447Z,2.70
2024-02-03T09:59:33.679Z,2.95
2024-02-03T10:02:00.962Z,3.40
2024-02-03T10:04:37.401Z,3.80
2024-02-03T10:07:06.146Z,3.42
2024-02-03T10:10:51.698Z,3.95
2024-02-03T10:12:22.700Z,3.22
2024-02-03T10:14:59.975Z,2.80
2024-02-03T10:17:27.490Z,2.92
2024-02-03T10:19:54.911Z,3.15
2024-02-03T10:22:23.663Z,2.58
2024-02-03T10:24:51.126Z,2.83
2024-02-03T10:27:22.883Z,2.75
2024-02-03T10:29:53.908Z,3.30
2024-02-03T10:32:21.324Z,2.35
2024-02-03T10:34:49.334Z,2.67
2024-02-03T10:37:16.759Z,3.50
2024-02-03T10:39:45.529Z,2.28
2024-02-03T10:42:19.844Z,2.83
2024-02-03T10:47:20.568Z,2.70
2024-02-03T10:49:49.654Z,2.30
2024-02-03T10:52:19.687Z,2.22
2024-02-03T10:54:54.785Z,2.47
2024-02-03T10:57:24.114Z,3.90
2024-02-03T10:59:51.503Z,2.00
2024-02-03T11:02:18.904Z,2.50
2024-02-03T11:04:48.713Z,2.35
2024-02-03T11:07:26.670Z,2.45
2024-02-03T11:09:56.733Z,2.45
2024-02-03T11:12:24.219Z,3.65
2024-02-03T11:14:51.584Z,2.30
2024-02-03T11:17:18.990Z,2.78
2024-02-03T11:19:47.067Z,2.45
2024-02-03T11:22:16.409Z,3.85
2024-02-03T11:24:44.596Z,3.28
2024-02-03T11:29:40.426Z,3.60
2024-02-03T11:32:08.701Z,5.88
2024-02-03T11:34:36.888Z,3.97
2024-02-03T11:37:05.397Z,4.85
2024-02-03T11:39:34.006Z,2.90
2024-02-03T11:42:03.194Z,3.08
2024-02-03T11:44:36.293Z,2.90
2024-02-03T11:47:04.971Z,2.45
2024-02-03T11:49:32.533Z,2.90
2024-02-03T11:52:00.123Z,2.20
2024-02-03T11:54:27.532Z,4.28
2024-02-03T11:56:55.012Z,2.30
2024-02-03T11:59:26.933Z,2.17
2024-02-03T12:01:56.055Z,2.67
2024-02-03T12:04:24.461Z,2.30
2024-02-03T12:06:51.949Z,3.42
2024-02-03T12:09:20.160Z,2.05
2024-02-03T12:14:14.859Z,1.95
2024-02-03T12:16:42.509Z,2.50
2024-02-03T12:19:11.308Z,3.90
2024-02-03T12:21:39.201Z,2.10
2024-02-03T12:24:07.639Z,2.95
2024-02-03T12:26:35.474Z,2.63
2024-02-03T12:29:02.936Z,2.35
2024-02-03T12:31:30.350Z,2.47
2024-02-03T12:33:57.840Z,2.22
2024-02-03T12:36:26.718Z,1.98
2024-02-03T12:38:54.046Z,2.00
2024-02-03T12:41:21.691Z,2.47
2024-02-03T12:43:49.000Z,2.90
2024-02-03T12:46:16.373Z,2.83
2024-02-03T12:48:44.000Z,3.35
2024-02-03T12:51:11.673Z,2.38
2024-02-03T12:53:40.702Z,3.15
2024-02-03T12:56:08.306Z,2.85
2024-02-03T12:58:35.664Z,3.67
2024-02-03T13:01:03.155Z,2.35
2024-02-03T13:03:30.710Z,2.55
2024-02-03T13:05:58.219Z,3.03
2024-02-03T13:08:25.755Z,2.97
2024-02-03T13:10:54.501Z,2.20
2024-02-03T13:13:21.860Z,2.42
2024-02-03T13:15:49.319Z,2.25
2024-02-03T13:18:16.771Z,1.90
2024-02-03T13:20:44.129Z,2.13
2024-02-03T13:23:11.455Z,2.15
2024-02-03T13:25:38.776Z,2.15
2024-02-03T13:28:09.295Z,2.25
2024-02-03T13:30:36.623Z,2.83
2024-02-03T13:33:04.795Z,3.25
2024-02-03T13:35:32.309Z,2.80
2024-02-03T13:37:59.726Z,2.00
2024-02-03T13:40:27.106Z,2.85
2024-02-03T13:42:54.715Z,3.00
2024-02-03T13:45:23.822Z,3.65
2024-02-03T13:47:51.591Z,4.40
2024-02-03T13:50:19.393Z,4.25
2024-02-03T13:52:46.947Z,3.78
2024-02-03T13:55:14.576Z,2.80
2024-02-03T13:57:42.198Z,3.58
2024-02-03T14:00:10.401Z,3.08
2024-02-03T14:02:39.397Z,2.80
2024-02-03T14:05:07.378Z,4.22
2024-02-03T14:07:34.714Z,4.05
2024-02-03T14:10:02.203Z,3.63
2024-02-03T14:12:29.588Z,3.67
2024-02-03T14:14:57.093Z,3.30
2024-02-03T14:17:24.396Z,2.95
2024-02-03T14:19:53.139Z,5.43
2024-02-03T14:22:20.493Z,5.00
2024-02-03T14:24:47.912Z,2.80
2024-02-03T14:27:15.283Z,2.50
2024-02-03T14:29:42.597Z,3.17
2024-02-03T14:32:09.906Z,2.88
2024-02-03T14:34:37.392Z,2.83
2024-02-03T14:37:06.475Z,2.75
2024-02-03T14:39:34.237Z,3.22
2024-02-03T14:42:01.634Z,2.30
2024-02-03T14:44:28.980Z,2.97
2024-02-03T14:46:56.389Z,3.28
2024-02-03T14:49:23.922Z,3.78
2024-02-03T14:51:51.535Z,2.92
2024-02-03T14:54:20.306Z,2.08
2024-02-03T14:56:47.669Z,2.95
2024-02-03T14:59:14.975Z,2.35
2024-02-03T15:01:42.689Z,2.30
2024-02-03T15:04:10.096Z,2.95
2024-02-03T15:06:37.640Z,4.03
2024-02-03T15:09:05.168Z,3.05
2024-02-03T15:11:33.895Z,2.92
2024-02-03T15:14:01.201Z,2.17
2024-02-03T15:16:29.272Z,3.40
2024-02-03T15:18:56.728Z,2.13
2024-02-03T15:21:24.138Z,2.75
2024-02-03T15:23:51.564Z,3.47
2024-02-03T15:26:18.916Z,2.60
2024-02-03T15:28:47.642Z,5.05
2024-02-03T15:31:15.146Z,3.67
2024-02-03T15:33:42.726Z,4.10
2024-02-03T15:36:10.153Z,2.97
2024-02-03T15:38:37.467Z,3.53
2024-02-03T15:41:05.136Z,4.05
2024-02-03T15:43:34.173Z,4.78
2024-02-03T15:46:03.552Z,4.13
2024-02-03T15:48:31.249Z,4.07
2024-02-03T15:50:58.652Z,5.28
2024-02-03T15:53:25.922Z,4.07
2024-02-03T15:55:53.372Z,4.10
2024-02-03T15:58:20.850Z,4.70
2024-02-03T16:00:48.725Z,6.35
2024-02-03T16:03:17.508Z,4.60
2024-02-03T16:05:45.019Z,5.00
2024-02-03T16:08:12.363Z,4.22
2024-02-03T16:10:39.691Z,4.93
2024-02-03T16:13:07.166Z,5.22
2024-02-03T16:15:34.566Z,6.55
2024-02-03T16:18:02.021Z,5.97
2024-02-03T16:20:30.775Z,8.52
2024-02-03T16:22:58.186Z,6.07
2024-02-03T16:25:25.586Z,7.05
2024-02-03T16:27:53.381Z,7.22
2024-02-03T16:30:20.824Z,7.47
2024-02-03T16:32:48.205Z,5.82
2024-02-03T16:35:15.830Z,6.32
2024-02-03T16:37:44.627Z,5.43
2024-02-03T16:40:12.546Z,7.10
2024-02-03T16:42:40.219Z,7.50
2024-02-03T16:45:08.621Z,6.05
2024-02-03T16:47:37.615Z,7.32
2024-02-03T16:50:05.876Z,8.07
2024-02-03T16:55:02.798Z,8.05
2024-02-03T16:57:31.026Z,7.22
2024-02-03T17:02:26.087Z,7.15
2024-02-03T17:04:53.482Z,8.48
2024-02-03T17:07:20.867Z,7.47
2024-02-03T17:09:48.217Z,7.38
2024-02-03T17:12:17.005Z,6.80
2024-02-03T17:14:44.569Z,6.93
2024-02-03T17:17:12.928Z,5.70
2024-02-03T17:19:40.361Z,6.60
2024-02-03T17:22:07.714Z,8.55
2024-02-03T17:24:35.434Z,8.07
2024-02-03T17:27:02.766Z,7.78
2024-02-03T17:29:32.467Z,7.00
2024-02-03T17:31:59.769Z,8.32
2024-02-03T17:34:27.127Z,8.50
2024-02-03T17:36:54.800Z,9.27
2024-02-03T17:39:23.800Z,8.00
2024-02-03T17:41:51.116Z,8.25
2024-02-03T17:44:18.897Z,11.40
2024-02-03T17:46:48.000Z,10.68
2024-02-03T17:49:16.994Z,7.93
2024-02-03T17:51:44.357Z,8.02
2024-02-03T17:54:11.676Z,7.90
2024-02-03T17:56:38.933Z,8.25
2024-02-03T17:59:06.226Z,7.95
2024-02-03T18:01:34.172Z,7.32
2024-02-03T18:04:03.036Z,10.30
2024-02-03T18:06:30.439Z,8.43
2024-02-03T18:08:57.847Z,7.55
2024-02-03T18:11:25.088Z,7.57
2024-02-03T18:13:52.496Z,7.18
2024-02-03T18:16:21.569Z,7.60
2024-02-03T18:18:49.017Z,6.93
2024-02-03T18:21:18.237Z,6.50
2024-02-03T18:23:45.748Z,10.15
2024-02-03T18:26:13.551Z,7.85
2024-02-03T18:28:40.851Z,7.53
2024-02-03T18:31:08.229Z,6.50
2024-02-03T18:33:35.599Z,7.07
2024-02-03T18:36:03.117Z,6.57
2024-02-03T18:38:33.329Z,8.98
2024-02-03T18:41:00.666Z,8.70
2024-02-03T18:43:28.003Z,7.47
2024-02-03T18:45:57.485Z,11.65
2024-02-03T18:48:26.216Z,10.68
2024-02-03T18:50:53.655Z,8.35
2024-02-03T18:53:21.183Z,8.93
2024-02-03T18:55:50.036Z,8.13
2024-02-03T18:58:17.575Z,7.72
2024-02-03T19:00:45.176Z,6.22
2024-02-03T19:03:12.651Z,8.38
2024-02-03T19:05:40.148Z,8.25
2024-02-03T19:08:07.873Z,7.28
2024-02-03T19:10:35.142Z,7.10
2024-02-03T19:13:04.491Z,6.45
2024-02-03T19:15:31.966Z,7.95
2024-02-03T19:17:59.361Z,8.40
2024-02-03T19:20:28.369Z,6.95
2024-02-03T19:22:55.904Z,6.05
2024-02-03T19:25:24.217Z,5.78
2024-02-03T19:27:51.557Z,6.63
2024-02-03T19:30:20.355Z,5.95
2024-02-03T19:32:47.713Z,6.00
2024-02-03T19:35:16.158Z,5.68
2024-02-03T19:37:43.719Z,5.75
2024-02-03T19:40:12.703Z,6.25
2024-02-03T19:42:40.091Z,4.15
2024-02-03T19:45:09.359Z,5.15
2024-02-03T19:47:39.152Z,4.25
2024-02-03T19:50:07.430Z,4.20
2024-02-03T19:55:02.160Z,3.30
2024-02-03T19:57:29.517Z,3.35
2024-02-03T19:59:56.969Z,3.15
2024-02-03T20:02:24.398Z,2.85
2024-02-03T20:04:53.355Z,2.97
2024-02-03T20:07:20.829Z,3.33
2024-02-03T20:09:48.415Z,3.33
2024-02-03T20:12:16.023Z,3.92
2024-02-03T20:14:43.400Z,2.28
2024-02-03T20:17:10.769Z,3.50
2024-02-03T20:19:38.216Z,2.65
2024-02-03T20:22:07.579Z,2.72
2024-02-03T20:24:34.941Z,2.67
2024-02-03T20:27:02.259Z,3.42
2024-02-03T20:29:29.875Z,2.10
2024-02-03T20:31:57.534Z,2.88
2024-02-03T20:34:24.971Z,2.92
2024-02-03T20:36:52.465Z,3.55
2024-02-03T20:39:23.824Z,3.03
2024-02-03T20:41:51.501Z,2.83
2024-02-03T20:44:18.966Z,3.95
2024-02-03T20:46:47.204Z,2.75
2024-02-03T20:49:14.750Z,3.08
2024-02-03T20:51:42.398Z,2.05
2024-02-03T20:54:09.760Z,2.72
2024-02-03T20:56:39.088Z,3.47
2024-02-03T20:59:06.983Z,2.85
2024-02-03T21:01:34.860Z,3.83
2024-02-03T21:04:04.893Z,3.47
2024-02-03T21:06:32.474Z,3.10
2024-02-03T21:08:59.886Z,3.00
2024-02-03T21:11:27.145Z,3.13
2024-02-03T21:16:24.324Z,2.72
2024-02-03T21:18:51.920Z,4.03
2024-02-03T21:21:19.594Z,2.35
2024-02-03T21:23:47.278Z,2.88
2024-02-03T21:26:14.531Z,2.50
2024-02-03T21:28:42.017Z,1.75
2024-02-03T21:31:10.874Z,2.78
2024-02-03T21:33:38.379Z,2.35
2024-02-03T21:36:06.833Z,2.63
2024-02-03T21:38:35.019Z,2.28
2024-02-03T21:41:04.194Z,2.80
2024-02-03T21:43:33.671Z,4.00
2024-02-03T21:46:01.556Z,3.05
2024-02-03T21:48:32.624Z,2.65
2024-02-03T21:51:00.418Z,2.35
2024-02-03T21:53:27.963Z,2.45
2024-02-03T21:55:56.722Z,2.28
2024-02-03T21:58:24.072Z,4.13
2024-02-03T22:00:54.452Z,2.22
2024-02-03T22:03:21.955Z,2.22
2024-02-03T22:05:50.682Z,3.30
2024-02-03T22:08:18.250Z,2.45
2024-02-03T22:10:45.610Z,2.05
2024-02-03T22:13:13.115Z,2.90
2024-02-03T22:15:40.441Z,2.83
2024-02-03T22:18:07.835Z,2.55
2024-02-03T22:20:35.178Z,1.70
2024-02-03T22:23:04.470Z,1.73
2024-02-03T22:25:33.164Z,6.05
2024-02-03T22:28:01.577Z,2.83
2024-02-03T22:30:30.285Z,2.15
2024-02-03T22:32:57.687Z,2.42
2024-02-03T22:35:25.095Z,1.80
2024-02-03T22:37:52.391Z,3.45
2024-02-03T22:40:21.390Z,2.45
2024-02-03T22:42:48.739Z,2.17
2024-02-03T22:45:16.078Z,3.00
2024-02-03T22:47:43.690Z,1.70
2024-02-03T22:50:11.112Z,2.15
2024-02-03T22:52:38.758Z,2.28
2024-02-03T22:55:06.492Z,3.22
2024-02-03T22:57:35.376Z,1.88
2024-02-03T23:00:02.931Z,2.28
2024-02-03T23:02:30.596Z,2.30
2024-02-03T23:04:57.881Z,2.65
2024-02-03T23:07:26.196Z,3.17
2024-02-03T23:12:20.777Z,2.28
2024-02-03T23:14:49.505Z,3.05
2024-02-03T23:17:16.781Z,2.65
2024-02-03T23:19:44.171Z,3.40
2024-02-03T23:22:11.646Z,2.75
2024-02-03T23:24:39.086Z,3.00
2024-02-03T23:27:06.426Z,2.75
2024-02-03T23:29:34.951Z,5.22
2024-02-03T23:32:05.790Z,2.78
2024-02-03T23:34:33.181Z,2.60
2024-02-03T23:37:01.117Z,3.15
2024-02-03T23:39:30.007Z,2.33
2024-02-03T23:41:57.326Z,2.75
2024-02-03T23:44:24.640Z,2.25
2024-02-03T23:46:52.127Z,5.95
2024-02-03T23:49:21.126Z,2.65
2024-02-03T23:51:48.485Z,3.20
2024-02-03T23:54:16.988Z,2.65
2024-02-03T23:56:44.275Z,3.88
2024-02-03T23:59:13.065Z,2.30
